Observations for FAIRFORD RAF, United Kingdom (EGVA)

EGVA 180456Z AUTO 25010KT 9999 OVC010 14/13 A3003 RMK AO2 RAE03DZB03E07RAB07E16 SLP172 P0000 T01380127 $
EGVA 180426Z AUTO 24009KT 9000 M OVC010 14/13 A3002 RMK AO2 RAE03DZB03E07RAB07E16 SLP168 $
EGVA 180411Z AUTO 23007KT 9999 -RA BKN009 OVC030 14/13 A3002 RMK AO2 RAE03DZB03E07RAB07 CIG 009V030 SLP168 $
EGVA 180416Z AUTO 24006KT 9000 M BKN009 BKN014 OVC030 14/13 A3002 RMK AO2 RAE03DZB03E07RAB07E16 CIG 009V030 SLP168 $
EGVA 180356Z AUTO 23009KT 9999 -RA FEW022 OVC030 14/13 A3001 RMK AO2 RAB53 SLP165 P0000 T01350125 $ 
EGVA 180353Z AUTO 22008KT 9999 -RA FEW022 OVC030 13/12 A3001 RMK AO2 RAB53 SLP165 $
EGVA 180256Z AUTO 25009KT 9999 SCT011 OVC022 13/12 A3002 RMK AO2 DZB0157E08 CIG 014 RWY09 SLP168 P0000 60000 T01330123 52005 $  
EGVA 180243Z AUTO 25012KT 9999 SCT010 OVC020 13/12 A3002 RMK AO2 DZB0157E08 CIG009V020 CIG 009 RWY09 SLP168 $
EGVA 180208Z AUTO 26013KT 9999 OVC009 13/12 A3001 RMK AO2 DZB0157E08 SLP165 $
EGVA 180156Z AUTO 26011KT 9999 BKN009 OVC013 14/12 A3001 RMK AO2 SLP165 T01350122 $ 
EGVA 180146Z AUTO 26011KT 9999 BKN009 OVC013 14/12 A3001 RMK AO2 CIG 009V013 SLP165 $
EGVA 180157Z AUTO 26012KT 9999 -DZ BKN009 OVC013 14/12 A3001 RMK AO2 DZB57 SLP165 $
EGVA 180056Z AUTO 26013KT 9999 BKN012 14/13 A3001 RMK AO2 CIG 011 RWY09 SLP165 T01410126 $  
EGVA 180006Z AUTO 26011KT 9999 BKN010 OVC018 15/14 A3001 RMK AO2 CIG 009V018 SLP165 $
EGVA 180001Z AUTO 26013G21KT 9999 SCT009 OVC018 15/14 A3000 RMK AO2 CIG 009V018CIG 011 RWY09 SLP162 $
EGVA 172356Z AUTO 26013G21KT 9999 BKN009 OVC018 15/14 A3000 RMK AO2 BKN V OVC SLP162 60001 T01490139 10160 20149 401690122 53002 $  
EGVA 172346Z AUTO 26013G18KT 9999 OVC009 15/14 A3000 RMK AO2 SLP162 $
EGVA 172256Z AUTO 25012KT 9999 OVC010 15/14 A3000 RMK AO2 SLP161 T01500142 $
EGVA 172156Z AUTO 23007KT 9999 OVC009 15/15 A3000 RMK AO2 RAE09DZB09E14 SLP162 P0000 T01530147 $
EGVA 172134Z AUTO 24007KT 9999 OVC009 15/15 A3000 RMK AO2 RAE09DZB09E14 CIG 007V009 SLP162 $
EGVA 172106Z AUTO 24007KT 9999 -RA BR BKN005 OVC009 15/15 A3000 RMK AO2 CIG 005V009 BKN V SCT SLP162 $
EGVA 172114Z AUTO 23008KT 9999 BKN005 OVC010 15/15 A3000 RMK AO2 RAE09DZB09E14 SLP162 $
EGVA 172119Z AUTO 23007KT 9999 OVC008 15/15 A3000 RMK AO2 RAE09DZB09E14 CIG 005V008 SLP162 $
EGVA 172124Z AUTO 23006KT 9999 BKN007 OVC011 15/15 A3000 RMK AO2 RAE09DZB09E14 CIG 005V008 SLP162 $
EGVA 172101Z AUTO 24009KT 9999 -RA BR SCT005 OVC009 15/15 A3000 RMK AO2 CIG 005V009 SLP162 $
EGVA 172056Z AUTO 25011KT 9999 -RA BR BKN005 OVC009 15/15 A3000 RMK AO2 RAB10E27DZB27E28RAB32 CIG 005V011 SLP162 P0001 60001 T01530147 52009 $  
EGVA 172028Z AUTO 21009KT 9999 BKN004 OVC012 15/15 A2998 RMK AO2 RAB10E27DZB27E28 SLP155 $
EGVA 172032Z AUTO 22008KT 9999 -RA BR BKN004 OVC012 15/15 A2999 RMK AO2 RAB10E27DZB27E28RAB32 SLP158 $
EGVA 172037Z AUTO 23006KT 9999 -RA BR SCT004 OVC012 15/15 A2999 RMK AO2 RAB10E27DZB27E28RAB32 CIG 004V012 CIG 008 RWY09 SLP158 $
EGVA 172010Z AUTO 21009KT 9999 -RA BR OVC005 15/15 A2998 RMK AO2 RAB10 SLP155 $
EGVA 172015Z AUTO 22009KT 9999 -RA BR BKN004 OVC008 15/15 A2998 RMK AO2 RAB10 SLP155 $
EGVA 172052Z AUTO 23009KT 9999 -RA BR BKN005 OVC009 15/15 A3000 RMK AO2 RAB10E27DZB27E28RAB32 CIG 005V011 SLP162 $
EGVA 171956Z AUTO 21006KT 9999 OVC005 15/14 A2998 RMK AO2 SLP155 T01540144 $
EGVA 171926Z AUTO 22009KT 9999 OVC007 16/14 A2997 RMK AO2 CIG 007V009 SLP151 $
EGVA 171937Z AUTO 21009KT 9999 OVC006 16/14 A2997 RMK AO2 SLP151 $
EGVA 171901Z AUTO 20010KT 9999 OVC009 16/14 A2998 RMK AO2 SLP155 $
EGVA 171952Z AUTO 22008KT 9999 OVC005 15/14 A2997 RMK AO2 SLP152 $
EGVA 171856Z AUTO 21010KT 9999 OVC010 16/14 A2998 RMK AO2 SLP155 T01580136 $
EGVA 171816Z AUTO 22012KT 9999 SCT010 OVC015 16/13 A2997 RMK AO2 CIG 011V015 CIG 011 RWY09 SLP152 $
EGVA 171821Z AUTO 21011KT 9999 OVC013 16/13 A2997 RMK AO2 CIG 010V015 CIG 011 RWY09 SLP152 $
EGVA 171756Z AUTO 22014G19KT 9999 OVC011 16/13 A2997 RMK AO2 SLP152 T01570134 10169 20154 55002 $   
EGVA 171656Z AUTO 21010KT 9999 OVC011 16/13 A2996 RMK AO2 SLP148 T01570130 $
EGVA 171601Z AUTO 22015KT 9999 OVC013 16/13 A2997 RMK AO2 CIG 013V017 SLP152 $
EGVA 171556Z AUTO 20014G19KT 9999 OVC015 16/13 A2997 RMK AO2 SLP152 T01600125 $ 
EGVA 171521Z AUTO 22015KT 9999 BKN019 OVC024 17/12 A2997 RMK AO2 SLP151 $
EGVA 171456Z AUTO 22014KT 9999 OVC020 17/12 A2998 RMK AO2 SLP155 T01650120 55003 $  
EGVA 171441Z AUTO 22012G18KT 9999 OVC020 17/12 A2998 RMK AO2 SLP155 $
EGVA 171421Z AUTO 20011KT 9999 OVC019 16/12 A2997 RMK AO2 SLP152 $
EGVA 171356Z AUTO 21015KT 9999 OVC022 17/12 A2997 RMK AO2 SLP151 T01680121 $
EGVA 171256Z AUTO 22012G18KT 8000 M OVC028 17/11 A2998 RMK AO2 CIG 027 RWY09 SLP155 T01650108 $ 
EGVA 171156Z AUTO 23014KT 9999 OVC028 16/10 A2999 RMK AO2 OVC V BKN SLP159 60000 T01560104 10161 20126 58001 $  
EGVA 171056Z AUTO 23014G19KT 9999 SCT021 BKN028 BKN035 16/11 A2999 RMK AO2 SLP159 T01600109 $   
EGVA 171001Z AUTO 24010KT 9999 SCT019 BKN027 OVC034 15/11 A3000 RMK AO2 CIG 019V027 SLP162 $
EGVA 170956Z AUTO 24011KT 9999 BKN019 BKN025 OVC033 15/11 A2999 RMK AO2 CIG 019V033 SLP159 T01460106 $  
EGVA 170916Z AUTO 23007KT 9999 SCT017 BKN023 BKN029 OVC039 14/11 A3000 RMK AO2 CIG 016V023 SLP162 $
EGVA 170856Z AUTO 23010KT 9999 BKN016 BKN023 15/11 A2999 RMK AO2 SLP159 60000 T01480112 50003 $ 
EGVA 170836Z AUTO 22010KT 9999 SCT014 BKN022 BKN060 15/11 A2999 RMK AO2 CIG 022V060 BKN022 V SCT SLP159 $
EGVA 170806Z AUTO 24010KT 9999 BKN017 BKN027 BKN039 OVC060 14/11 A3000 RMK AO2 CIG 017V025 BKN017 V SCT SLP162 $
EGVA 170811Z AUTO 23009KT 9999 BKN017 BKN034 OVC060 14/11 A3000 RMK AO2 CIG 017V024 BKN017 V SCT SLP162 $
EGVA 170816Z AUTO 23008KT 9999 SCT018 BKN040 OVC060 14/11 A3000 RMK AO2 SLP162 $
EGVA 170821Z AUTO 23008KT 9999 SCT018 OVC060 14/11 A3000 RMK AO2 SLP162 $
EGVA 170851Z AUTO 22011KT 9999 BKN016 BKN023 15/12 A2999 RMK AO2 CIG 016V020 SLP159 $
EGVA 170756Z AUTO 24009KT 9999 FEW013 SCT019 SCT025 BKN030 BKN040 OVC060 14/11 A3000 RMK AO2 SLP162 T01390111 $ 
EGVA 170706Z AUTO 24009KT 9999 SCT012 BKN018 OVC080 14/12 A2999 RMK AO2 CIG 018V080 SLP159 $
EGVA 170711Z AUTO 25009KT 9999 BKN012 BKN018 OVC080 14/12 A2999 RMK AO2 CIG 012V080 BKN012 V SCT SLP159 $
EGVA 170746Z AUTO 25009KT 9999 SCT013 BKN024 BKN030 OVC065 14/11 A3000 RMK AO2 CIG 012V024 SLP162 $
EGVA 170656Z AUTO 25011KT 9999 SCT014 SCT019 OVC080 13/12 A2999 RMK AO2 DZE14 SLP159 P0000 T01340118 $  
EGVA 170606Z AUTO 24007KT 8000 -DZ BKN014 13/11 A2998 RMK AO2 SLP155 $
EGVA 170614Z AUTO 24007KT 9999 BKN014 OVC048 13/11 A2998 RMK AO2 DZE14 SLP155 $
EGVA 170654Z AUTO 24009KT 9999 SCT014 SCT019 OVC080 14/12 A2999 RMK AO2 DZE14 SLP159 $
EGVA 170556Z AUTO 25006KT 9999 -DZ BKN016 13/11 A2998 RMK AO2 RAB09E53DZB53 SLP155 P0000 60000 T01250112 10128 20122 53011 $
EGVA 170539Z AUTO 23006KT 9000 -RA BKN016 12/11 A2997 RMK AO2 RAB09 BKN V SCT SLP152 $
EGVA 170509Z AUTO 23007KT 9999 -RA FEW015 13/11 A2996 RMK AO2 RAB09 SLP148 $
EGVA 170456Z AUTO 23007KT 9999 FEW015 12/11 A2996 RMK AO2 DZB0356E05DZB11E24 SLP148 P0000 T01240105 $